createdAt,value
2023-02-15T00:00:12.240Z,100.00
2023-02-15T00:02:41.489Z,100.00
2023-02-15T00:05:11.324Z,100.00
2023-02-15T00:07:39.786Z,100.00
2023-02-15T00:10:09.501Z,100.00
2023-02-15T00:12:37.980Z,100.00
2023-02-15T00:15:06.697Z,100.00
2023-02-15T00:17:35.087Z,100.00
2023-02-15T00:20:03.499Z,100.00
2023-02-15T00:22:33.411Z,100.00
2023-02-15T00:25:01.804Z,100.00
2023-02-15T00:27:30.240Z,100.00
2023-02-15T00:29:58.640Z,100.00
2023-02-15T00:32:26.992Z,100.00
2023-02-15T00:34:55.536Z,100.00
2023-02-15T00:37:25.845Z,100.00
2023-02-15T00:39:55.634Z,100.00
2023-02-15T00:42:24.031Z,100.00
2023-02-15T00:44:54.090Z,100.00
2023-02-15T00:47:22.762Z,100.00
2023-02-15T00:49:51.256Z,100.00
2023-02-15T00:52:20.229Z,100.00
2023-02-15T00:54:48.536Z,100.00
2023-02-15T00:57:18.402Z,100.00
2023-02-15T00:59:46.791Z,100.00
2023-02-15T01:02:15.324Z,100.00
2023-02-15T01:04:43.819Z,100.00
2023-02-15T01:07:12.231Z,100.00
2023-02-15T01:09:40.573Z,100.00
2023-02-15T01:12:09.628Z,100.00
2023-02-15T01:14:39.377Z,100.00
2023-02-15T01:17:07.990Z,100.00
2023-02-15T01:19:37.432Z,100.00
2023-02-15T01:22:05.778Z,100.00
2023-02-15T01:24:37.310Z,100.00
2023-02-15T01:27:05.615Z,100.00
2023-02-15T01:29:33.985Z,100.00
2023-02-15T01:32:03.881Z,100.00
2023-02-15T01:34:32.531Z,100.00
2023-02-15T01:37:01.400Z,100.00
2023-02-15T01:39:29.778Z,100.00
2023-02-15T01:41:58.585Z,100.00
2023-02-15T01:44:50.553Z,100.00
2023-02-15T01:47:28.393Z,100.00
2023-02-15T01:50:04.114Z,100.00
2023-02-15T01:52:32.626Z,100.00
2023-02-15T01:55:01.161Z,100.00
2023-02-15T01:57:32.251Z,100.00
2023-02-15T02:00:03.463Z,100.00
2023-02-15T02:02:45.212Z,100.00
2023-02-15T02:05:13.689Z,100.00
2023-02-15T02:07:45.912Z,100.00
2023-02-15T02:10:17.785Z,100.00
2023-02-15T02:12:49.404Z,100.00
2023-02-15T02:15:18.263Z,100.00
2023-02-15T02:18:02.289Z,100.00
2023-02-15T02:20:45.342Z,100.00
2023-02-15T02:23:35.108Z,100.00
2023-02-15T02:26:45.061Z,100.00
2023-02-15T02:29:49.901Z,100.00
2023-02-15T02:32:34.879Z,100.00
2023-02-15T02:35:12.336Z,100.00
2023-02-15T02:37:52.621Z,100.00
2023-02-15T02:40:27.857Z,100.00
2023-02-15T02:43:02.152Z,100.00
2023-02-15T02:45:39.798Z,100.00
2023-02-15T02:48:11.652Z,100.00
2023-02-15T02:50:43.087Z,100.00
2023-02-15T02:53:12.098Z,100.00
2023-02-15T02:55:45.407Z,100.00
2023-02-15T02:58:18.733Z,100.00
2023-02-15T03:00:52.690Z,100.00
2023-02-15T03:03:27.968Z,100.00
2023-02-15T03:06:01.654Z,100.00
2023-02-15T03:08:35.086Z,100.00
2023-02-15T03:11:05.882Z,100.00
2023-02-15T03:13:35.460Z,100.00
2023-02-15T03:16:25.194Z,100.00
2023-02-15T03:18:59.054Z,100.00
2023-02-15T03:21:36.089Z,100.00
2023-02-15T03:24:15.357Z,100.00
2023-02-15T03:26:45.265Z,100.00
2023-02-15T03:29:14.766Z,100.00
2023-02-15T03:31:47.755Z,100.00
2023-02-15T03:34:18.857Z,100.00
2023-02-15T03:36:54.186Z,100.00
2023-02-15T03:39:26.932Z,100.00
2023-02-15T03:42:00.349Z,100.00
2023-02-15T03:44:31.748Z,100.00
2023-02-15T03:47:06.357Z,100.00
2023-02-15T03:49:41.160Z,100.00
2023-02-15T03:52:13.837Z,100.00
2023-02-15T03:54:46.859Z,100.00
2023-02-15T03:57:37.905Z,100.00
2023-02-15T04:00:30.997Z,100.00
2023-02-15T04:03:12.707Z,100.00
2023-02-15T04:05:41.325Z,100.00
2023-02-15T04:08:11.734Z,100.00
2023-02-15T04:10:55.963Z,100.00
2023-02-15T04:13:31.484Z,100.00
2023-02-15T04:16:05.920Z,100.00
2023-02-15T04:18:55.857Z,100.00
2023-02-15T04:21:44.139Z,100.00
2023-02-15T04:24:32.095Z,100.00
2023-02-15T04:27:01.402Z,100.00
2023-02-15T04:29:30.239Z,100.00
2023-02-15T04:31:59.991Z,100.00
2023-02-15T04:34:28.545Z,100.00
2023-02-15T04:36:56.902Z,100.00
2023-02-15T04:39:26.866Z,100.00
2023-02-15T04:41:55.299Z,100.00
2023-02-15T04:44:23.651Z,100.00
2023-02-15T04:46:52.027Z,100.00
2023-02-15T04:49:20.398Z,100.00
2023-02-15T04:51:48.772Z,100.00
2023-02-15T04:54:17.081Z,100.00
2023-02-15T04:56:46.932Z,100.00
2023-02-15T04:59:15.796Z,100.00
2023-02-15T05:01:44.270Z,100.00
2023-02-15T05:04:12.919Z,100.00
2023-02-15T05:06:41.390Z,100.00
2023-02-15T05:09:09.710Z,100.00
2023-02-15T05:11:38.132Z,100.00
2023-02-15T05:14:07.807Z,100.00
2023-02-15T05:16:36.577Z,100.00
2023-02-15T05:19:04.930Z,100.00
2023-02-15T05:21:33.695Z,100.00
2023-02-15T05:24:22.035Z,100.00
2023-02-15T05:27:07.841Z,100.00
2023-02-15T05:29:37.575Z,100.00
2023-02-15T05:32:06.296Z,100.00
2023-02-15T05:34:34.701Z,100.00
2023-02-15T05:37:03.126Z,100.00
2023-02-15T05:39:31.605Z,100.00
2023-02-15T05:42:00.943Z,100.00
2023-02-15T05:44:29.396Z,100.00
2023-02-15T05:46:59.120Z,100.00
2023-02-15T05:49:27.459Z,100.00
2023-02-15T05:51:55.848Z,100.00
2023-02-15T05:54:24.464Z,100.00
2023-02-15T05:56:52.896Z,100.00
2023-02-15T05:59:21.270Z,100.00
2023-02-15T06:01:49.701Z,100.00
2023-02-15T06:04:20.345Z,100.00
2023-02-15T06:06:48.915Z,100.00
2023-02-15T06:09:19.158Z,100.00
2023-02-15T06:11:48.132Z,100.00
2023-02-15T06:14:16.757Z,100.00
2023-02-15T06:16:46.142Z,100.00
2023-02-15T06:19:14.709Z,100.00
2023-02-15T06:21:44.779Z,100.00
2023-02-15T06:24:13.710Z,100.00
2023-02-15T06:26:45.432Z,100.00
2023-02-15T06:29:14.122Z,100.00
2023-02-15T06:31:42.753Z,100.00
2023-02-15T06:34:11.225Z,100.00
2023-02-15T06:36:39.679Z,100.00
2023-02-15T06:39:09.590Z,100.00
2023-02-15T06:41:38.302Z,100.00
2023-02-15T06:44:06.794Z,100.00
2023-02-15T06:46:35.415Z,100.00
2023-02-15T06:49:03.855Z,100.00
2023-02-15T06:51:32.250Z,100.00
2023-02-15T06:54:00.602Z,100.00
2023-02-15T06:56:30.287Z,100.00
2023-02-15T06:58:58.736Z,100.00
2023-02-15T07:01:27.231Z,100.00
2023-02-15T07:03:55.847Z,100.00
2023-02-15T07:06:24.201Z,100.00
2023-02-15T07:08:53.651Z,100.00
2023-02-15T07:11:39.483Z,100.00
2023-02-15T07:14:09.195Z,100.00
2023-02-15T07:16:37.587Z,100.00
2023-02-15T07:19:06.357Z,100.00
2023-02-15T07:21:34.814Z,100.00
2023-02-15T07:24:03.887Z,100.00
2023-02-15T07:26:34.042Z,100.00
2023-02-15T07:29:03.389Z,100.00
2023-02-15T07:31:33.313Z,100.00
2023-02-15T07:34:01.676Z,100.00
2023-02-15T07:36:29.985Z,100.00
2023-02-15T07:38:58.461Z,100.00
2023-02-15T07:41:26.848Z,100.00
2023-02-15T07:43:55.464Z,100.00
2023-02-15T07:46:23.869Z,100.00
2023-02-15T07:48:53.741Z,100.00
2023-02-15T07:51:22.187Z,100.00
2023-02-15T07:53:52.393Z,100.00
2023-02-15T07:56:20.729Z,100.00
2023-02-15T07:58:56.528Z,100.00
2023-02-15T08:01:27.287Z,95.56
2023-02-15T08:03:59.646Z,94.15
2023-02-15T08:06:29.905Z,92.00
2023-02-15T08:08:58.826Z,90.51
2023-02-15T08:11:33.652Z,87.09
2023-02-15T08:14:04.824Z,85.11
2023-02-15T08:16:36.318Z,85.92
2023-02-15T08:19:08.692Z,86.59
2023-02-15T08:21:38.810Z,84.11
2023-02-15T08:24:08.823Z,83.61
2023-02-15T08:26:41.616Z,82.81
2023-02-15T08:29:11.548Z,81.17
2023-02-15T08:31:42.096Z,78.82
2023-02-15T08:34:13.249Z,77.18
2023-02-15T08:36:42.128Z,72.69
2023-02-15T08:39:10.767Z,69.21
2023-02-15T08:41:41.648Z,66.54
2023-02-15T08:44:11.583Z,64.27
2023-02-15T08:46:42.381Z,63.26
2023-02-15T08:49:14.668Z,62.80
2023-02-15T08:51:43.594Z,61.86
2023-02-15T08:54:15.401Z,60.98
2023-02-15T08:56:45.315Z,63.38
2023-02-15T08:59:17.195Z,61.56
2023-02-15T09:01:46.343Z,61.00
2023-02-15T09:04:17.638Z,61.28
2023-02-15T09:06:49.004Z,58.45
2023-02-15T09:09:18.394Z,57.81
2023-02-15T09:11:48.784Z,55.77
2023-02-15T09:14:18.850Z,52.22
2023-02-15T09:16:49.774Z,51.57
2023-02-15T09:19:21.865Z,48.37
2023-02-15T09:21:50.493Z,45.64
2023-02-15T09:24:19.726Z,47.21
2023-02-15T09:26:49.479Z,43.92
2023-02-15T09:29:19.943Z,43.84
2023-02-15T09:31:50.686Z,43.66
2023-02-15T09:34:22.119Z,41.02
2023-02-15T09:36:51.856Z,36.93
2023-02-15T09:39:23.388Z,36.05
2023-02-15T09:42:15.018Z,35.08
2023-02-15T09:45:13.896Z,36.64
2023-02-15T09:48:03.602Z,32.02
2023-02-15T09:50:44.422Z,32.41
2023-02-15T09:53:28.653Z,30.99
2023-02-15T09:56:04.480Z,31.33
2023-02-15T09:58:46.112Z,31.75
2023-02-15T10:01:26.353Z,28.87
2023-02-15T10:04:13.419Z,30.47
2023-02-15T10:06:49.166Z,28.50
2023-02-15T10:09:51.712Z,28.58
2023-02-15T10:12:50.658Z,28.93
2023-02-15T10:15:39.800Z,28.37
2023-02-15T10:18:22.087Z,26.58
2023-02-15T10:20:58.722Z,26.34
2023-02-15T10:23:53.895Z,28.01
2023-02-15T10:26:24.672Z,27.36
2023-02-15T10:28:55.895Z,27.42
2023-02-15T10:31:29.985Z,26.66
2023-02-15T10:34:16.399Z,27.41
2023-02-15T10:37:06.593Z,25.63
2023-02-15T10:39:50.241Z,25.13
2023-02-15T10:42:27.440Z,23.92
2023-02-15T10:45:15.070Z,23.60
2023-02-15T10:47:57.112Z,23.77
2023-02-15T10:50:35.637Z,23.29
2023-02-15T10:53:24.599Z,22.75
2023-02-15T10:56:03.124Z,22.46
2023-02-15T10:58:45.754Z,21.77
2023-02-15T11:01:22.228Z,21.09
2023-02-15T11:04:06.634Z,20.69
2023-02-15T11:06:38.829Z,21.29
2023-02-15T11:09:13.706Z,20.84
2023-02-15T11:11:44.836Z,21.87
2023-02-15T11:14:21.200Z,21.70
2023-02-15T11:16:54.026Z,22.20
2023-02-15T11:19:28.483Z,23.35
2023-02-15T11:21:57.860Z,23.09
2023-02-15T11:24:30.556Z,23.22
2023-02-15T11:27:05.142Z,23.54
2023-02-15T11:29:35.450Z,22.62
2023-02-15T11:32:14.514Z,21.31
2023-02-15T11:34:50.230Z,21.65
2023-02-15T11:37:21.934Z,21.18
2023-02-15T11:39:55.611Z,21.36
2023-02-15T11:42:27.524Z,20.83
2023-02-15T11:45:03.962Z,21.77
2023-02-15T11:47:32.421Z,22.65
2023-02-15T11:50:01.633Z,23.48
2023-02-15T11:52:30.012Z,23.74
2023-02-15T11:54:58.438Z,23.82
2023-02-15T11:57:36.400Z,24.15
2023-02-15T12:00:12.451Z,24.91
2023-02-15T12:02:46.522Z,24.63
2023-02-15T12:05:20.000Z,25.74
2023-02-15T12:07:53.939Z,25.62
2023-02-15T12:10:26.172Z,26.31
2023-02-15T12:13:13.280Z,26.10
2023-02-15T12:15:44.785Z,24.77
2023-02-15T12:18:22.451Z,23.65
2023-02-15T12:20:51.189Z,22.55
2023-02-15T12:23:21.359Z,23.10
2023-02-15T12:25:55.079Z,21.79
2023-02-15T12:28:28.918Z,20.71
2023-02-15T12:30:59.082Z,20.83
2023-02-15T12:33:32.213Z,20.94
2023-02-15T12:36:03.870Z,22.41
2023-02-15T12:38:32.600Z,22.30
2023-02-15T12:41:03.718Z,22.14
2023-02-15T12:43:36.228Z,22.37
2023-02-15T12:46:27.683Z,21.53
2023-02-15T12:49:21.172Z,21.79
2023-02-15T12:51:52.130Z,22.42
2023-02-15T12:54:40.994Z,22.63
2023-02-15T12:57:28.983Z,22.89
2023-02-15T13:00:01.396Z,22.20
2023-02-15T13:02:37.283Z,22.01
2023-02-15T13:05:19.435Z,22.45
2023-02-15T13:07:51.772Z,21.13
2023-02-15T13:10:25.497Z,22.14
2023-02-15T13:12:55.529Z,20.49
2023-02-15T13:15:36.625Z,21.09
2023-02-15T13:18:06.940Z,21.04
2023-02-15T13:20:41.469Z,22.42
2023-02-15T13:23:22.680Z,23.35
2023-02-15T13:25:51.602Z,25.30
2023-02-15T13:28:25.988Z,25.21
2023-02-15T13:30:56.268Z,26.15
2023-02-15T13:33:31.721Z,25.77
2023-02-15T13:36:08.604Z,26.08
2023-02-15T13:38:48.962Z,26.00
2023-02-15T13:41:22.108Z,26.65
2023-02-15T13:44:01.233Z,28.22
2023-02-15T13:46:51.159Z,29.92
2023-02-15T13:49:32.700Z,29.50
2023-02-15T13:52:16.446Z,30.09
2023-02-15T13:54:53.337Z,30.13
2023-02-15T13:57:41.023Z,29.70
2023-02-15T14:00:20.087Z,29.21
2023-02-15T14:03:10.588Z,29.94
2023-02-15T14:05:57.666Z,29.21
2023-02-15T14:08:42.542Z,29.95
2023-02-15T14:11:19.250Z,29.86
2023-02-15T14:14:20.292Z,31.68
2023-02-15T14:17:06.737Z,32.75
2023-02-15T14:19:46.581Z,34.56
2023-02-15T14:22:25.052Z,35.52
2023-02-15T14:25:05.325Z,37.18
2023-02-15T14:27:48.315Z,37.93
2023-02-15T14:30:22.230Z,39.12
2023-02-15T14:32:54.952Z,39.80
2023-02-15T14:35:28.801Z,40.18
2023-02-15T14:38:03.527Z,41.30
2023-02-15T14:40:57.290Z,42.28
2023-02-15T14:43:33.865Z,41.87
2023-02-15T14:46:09.568Z,42.17
2023-02-15T14:48:44.459Z,42.60
2023-02-15T14:51:57.754Z,42.83
2023-02-15T14:54:58.798Z,43.33
2023-02-15T14:57:33.384Z,43.71
2023-02-15T15:00:20.035Z,43.77
2023-02-15T15:02:51.717Z,44.08
2023-02-15T15:05:23.166Z,43.96
2023-02-15T15:07:55.429Z,45.16
2023-02-15T15:10:41.465Z,45.14
2023-02-15T15:13:42.341Z,45.25
2023-02-15T15:16:30.285Z,46.82
2023-02-15T15:18:59.394Z,46.82
2023-02-15T15:21:56.218Z,47.32
2023-02-15T15:24:53.114Z,47.16
2023-02-15T15:28:10.249Z,48.44
2023-02-15T15:30:52.402Z,48.51
2023-02-15T15:33:52.831Z,49.40
2023-02-15T15:36:55.392Z,50.16
2023-02-15T15:40:02.347Z,50.11
2023-02-15T15:42:34.550Z,50.24
2023-02-15T15:46:00.097Z,51.06
2023-02-15T15:48:33.408Z,51.95
2023-02-15T15:51:05.534Z,52.28
2023-02-15T15:53:40.934Z,52.85
2023-02-15T15:56:13.893Z,53.75
2023-02-15T15:58:48.617Z,53.71
2023-02-15T16:01:17.260Z,54.76
2023-02-15T16:03:53.366Z,54.87
2023-02-15T16:06:33.205Z,55.41
2023-02-15T16:09:18.383Z,56.72
2023-02-15T16:11:51.076Z,57.88
2023-02-15T16:14:27.795Z,58.98
2023-02-15T16:16:59.381Z,60.13
2023-02-15T16:19:31.383Z,61.64
2023-02-15T16:22:02.098Z,61.84
2023-02-15T16:24:44.989Z,62.54
2023-02-15T16:27:35.347Z,63.01
2023-02-15T16:30:24.372Z,64.72
2023-02-15T16:32:55.484Z,63.80
2023-02-15T16:35:25.425Z,65.37
2023-02-15T16:37:53.819Z,65.60
2023-02-15T16:40:34.896Z,65.63
2023-02-15T16:43:08.547Z,66.86
2023-02-15T16:45:39.671Z,66.43
2023-02-15T16:48:13.904Z,67.90
2023-02-15T16:50:48.297Z,67.87
2023-02-15T16:53:21.167Z,68.42
2023-02-15T16:55:52.960Z,69.35
2023-02-15T16:58:29.345Z,69.48
2023-02-15T17:01:00.794Z,70.63
2023-02-15T17:03:29.567Z,69.44
2023-02-15T17:05:59.830Z,69.28
2023-02-15T17:08:33.322Z,68.76
2023-02-15T17:11:12.631Z,69.06
2023-02-15T17:14:15.150Z,70.17
2023-02-15T17:16:49.801Z,68.58
2023-02-15T17:19:22.850Z,71.06
2023-02-15T17:21:54.203Z,72.61
2023-02-15T17:24:33.484Z,71.41
2023-02-15T17:27:05.905Z,71.77
2023-02-15T17:29:39.286Z,71.91
2023-02-15T17:32:17.790Z,72.06
2023-02-15T17:34:50.199Z,72.26
2023-02-15T17:37:28.075Z,73.38
2023-02-15T17:39:57.373Z,74.11
2023-02-15T17:42:25.954Z,72.29
2023-02-15T17:44:55.747Z,72.88
2023-02-15T17:47:27.575Z,72.69
2023-02-15T17:49:55.981Z,72.04
2023-02-15T17:52:26.441Z,73.51
2023-02-15T17:55:12.855Z,73.28
2023-02-15T17:57:41.282Z,74.52
2023-02-15T18:00:33.683Z,74.94
2023-02-15T18:03:19.667Z,73.94
2023-02-15T18:06:05.664Z,73.77
2023-02-15T18:08:51.679Z,72.95
2023-02-15T18:11:35.816Z,72.54
2023-02-15T18:14:04.725Z,72.82
2023-02-15T18:16:37.413Z,72.61
2023-02-15T18:19:06.776Z,72.75
2023-02-15T18:21:35.103Z,72.40
2023-02-15T18:24:03.567Z,72.30
2023-02-15T18:26:32.002Z,71.32
2023-02-15T18:29:00.479Z,72.08
2023-02-15T18:31:29.188Z,72.68
2023-02-15T18:34:03.052Z,73.78
2023-02-15T18:36:33.592Z,74.48
2023-02-15T18:39:07.768Z,74.53
2023-02-15T18:41:37.302Z,74.90
2023-02-15T18:44:11.437Z,74.86
2023-02-15T18:46:39.822Z,75.12
2023-02-15T18:49:09.627Z,73.86
2023-02-15T18:51:40.109Z,74.41
2023-02-15T18:54:18.116Z,74.59
2023-02-15T18:56:54.632Z,75.80
2023-02-15T18:59:24.430Z,76.56
2023-02-15T19:01:53.950Z,77.77
2023-02-15T19:04:25.796Z,78.77
2023-02-15T19:06:55.558Z,80.28
2023-02-15T19:09:26.101Z,80.26
2023-02-15T19:11:56.133Z,80.94
2023-02-15T19:14:27.557Z,81.51
2023-02-15T19:16:56.377Z,84.05
2023-02-15T19:19:27.240Z,86.62
2023-02-15T19:21:56.183Z,88.97
2023-02-15T19:24:31.672Z,89.63
2023-02-15T19:27:00.174Z,91.29
2023-02-15T19:29:31.582Z,93.46
2023-02-15T19:32:00.025Z,94.44
2023-02-15T19:34:29.845Z,96.34
2023-02-15T19:36:58.511Z,96.78
2023-02-15T19:39:29.979Z,97.75
2023-02-15T19:41:58.490Z,98.23
2023-02-15T19:44:26.875Z,97.79
2023-02-15T19:46:55.586Z,97.01
2023-02-15T19:49:23.955Z,96.39
2023-02-15T19:51:54.177Z,95.12
2023-02-15T19:54:30.696Z,94.56
2023-02-15T19:57:00.151Z,94.66
2023-02-15T19:59:30.027Z,94.80
2023-02-15T20:01:58.476Z,94.88
2023-02-15T20:04:28.008Z,93.58
2023-02-15T20:07:00.130Z,93.60
2023-02-15T20:09:32.195Z,93.31
2023-02-15T20:12:00.795Z,93.07
2023-02-15T20:14:29.104Z,92.68
2023-02-15T20:16:57.458Z,92.52
2023-02-15T20:19:25.800Z,92.44
2023-02-15T20:22:00.398Z,92.69
2023-02-15T20:24:31.711Z,93.15
2023-02-15T20:27:00.489Z,93.27
2023-02-15T20:29:28.827Z,92.85
2023-02-15T20:32:01.149Z,92.47
2023-02-15T20:34:29.572Z,92.82
2023-02-15T20:36:57.892Z,92.88
2023-02-15T20:39:26.303Z,92.38
2023-02-15T20:41:56.098Z,93.25
2023-02-15T20:44:26.558Z,92.39
2023-02-15T20:46:56.707Z,93.31
2023-02-15T20:49:26.754Z,93.14
2023-02-15T20:52:36.147Z,93.60
2023-02-15T20:55:57.287Z,94.64
2023-02-15T20:59:25.810Z,94.72
2023-02-15T21:01:58.773Z,95.28
2023-02-15T21:04:32.543Z,96.49
2023-02-15T21:07:02.191Z,97.03
2023-02-15T21:09:32.390Z,96.08
2023-02-15T21:12:02.514Z,96.90
2023-02-15T21:14:32.295Z,95.68
2023-02-15T21:17:00.849Z,95.61
2023-02-15T21:19:29.684Z,94.95
2023-02-15T21:21:59.595Z,95.74
2023-02-15T21:24:30.089Z,94.91
2023-02-15T21:27:03.139Z,95.74
2023-02-15T21:29:32.963Z,95.59
2023-02-15T21:32:02.590Z,95.35
2023-02-15T21:34:31.276Z,95.58
2023-02-15T21:37:00.214Z,95.74
2023-02-15T21:39:33.544Z,95.58
2023-02-15T21:42:30.783Z,94.89
2023-02-15T21:45:32.691Z,94.36
2023-02-15T21:48:01.412Z,95.68
2023-02-15T21:50:47.443Z,95.73
2023-02-15T21:53:21.601Z,97.31
2023-02-15T21:55:50.073Z,97.56
2023-02-15T21:58:21.346Z,97.88
2023-02-15T22:00:54.601Z,99.39
2023-02-15T22:03:23.764Z,100.00
2023-02-15T22:05:52.322Z,99.61
2023-02-15T22:08:20.857Z,99.55
2023-02-15T22:10:49.675Z,100.00
2023-02-15T22:13:24.007Z,100.00
2023-02-15T22:15:53.759Z,100.00
2023-02-15T22:18:26.195Z,100.00
2023-02-15T22:20:55.991Z,100.00
2023-02-15T22:23:24.912Z,100.00
2023-02-15T22:25:56.139Z,100.00
2023-02-15T22:28:29.886Z,100.00
2023-02-15T22:30:59.736Z,100.00
2023-02-15T22:33:30.248Z,100.00
2023-02-15T22:35:59.394Z,100.00
2023-02-15T22:38:28.426Z,100.00
2023-02-15T22:41:03.120Z,100.00
2023-02-15T22:43:38.517Z,100.00
2023-02-15T22:46:14.223Z,100.00
2023-02-15T22:48:43.714Z,99.51
2023-02-15T22:51:13.936Z,100.00
2023-02-15T22:53:42.473Z,100.00
2023-02-15T22:56:18.592Z,100.00
2023-02-15T22:58:48.373Z,100.00
2023-02-15T23:01:25.569Z,100.00
2023-02-15T23:03:53.901Z,100.00
2023-02-15T23:06:22.263Z,100.00
2023-02-15T23:08:50.655Z,100.00
2023-02-15T23:11:19.921Z,100.00
2023-02-15T23:13:49.639Z,100.00
2023-02-15T23:16:20.515Z,100.00
2023-02-15T23:18:49.266Z,100.00
2023-02-15T23:21:22.210Z,100.00
2023-02-15T23:23:52.336Z,100.00
2023-02-15T23:26:22.755Z,100.00
2023-02-15T23:28:52.335Z,100.00
2023-02-15T23:31:24.826Z,100.00
2023-02-15T23:33:54.159Z,100.00
2023-02-15T23:36:32.203Z,100.00
2023-02-15T23:39:23.432Z,100.00
2023-02-15T23:41:51.248Z,100.00
2023-02-15T23:44:20.256Z,100.00
2023-02-15T23:46:50.845Z,100.00
2023-02-15T23:49:20.506Z,100.00
2023-02-15T23:51:51.060Z,100.00
2023-02-15T23:54:21.798Z,100.00
2023-02-15T23:56:52.370Z,100.00
2023-02-15T23:59:23.284Z,100.00
